sensor_id;sensor_type;location;lat;lon;timestamp;pressure;altitude;pressure_sealevel;temperature;humidity
6565;BME280;3316;44.118;27.258;2022-11-18T00:02:02;100065.63;;;9.30;100.00
6565;BME280;3316;44.118;27.258;2022-11-18T00:04:27;100060.41;;;9.28;100.00
6565;BME280;3316;44.118;27.258;2022-11-18T00:06:53;100074.50;;;9.21;100.00
6565;BME280;3316;44.118;27.258;2022-11-18T00:09:18;100067.53;;;9.17;100.00
6565;BME280;3316;44.118;27.258;2022-11-18T00:11:44;100055.25;;;9.21;100.00
6565;BME280;3316;44.118;27.258;2022-11-18T00:14:27;100075.59;;;9.07;100.00
6565;BME280;3316;44.118;27.258;2022-11-18T00:16:56;100073.91;;;9.01;100.00
6565;BME280;3316;44.118;27.258;2022-11-18T00:19:33;100072.19;;;8.98;100.00
6565;BME280;3316;44.118;27.258;2022-11-18T00:21:59;100080.97;;;8.94;100.00
6565;BME280;3316;44.118;27.258;2022-11-18T00:24:26;100080.09;;;8.95;100.00
6565;BME280;3316;44.118;27.258;2022-11-18T00:26:52;100078.38;;;8.91;100.00
6565;BME280;3316;44.118;27.258;2022-11-18T00:29:18;100094.97;;;8.95;100.00
6565;BME280;3316;44.118;27.258;2022-11-18T00:31:44;100089.03;;;8.78;100.00
6565;BME280;3316;44.118;27.258;2022-11-18T00:34:15;100097.06;;;8.66;100.00
6565;BME280;3316;44.118;27.258;2022-11-18T00:36:42;100068.41;;;8.49;100.00
6565;BME280;3316;44.118;27.258;2022-11-18T00:39:10;100046.78;;;8.31;100.00
6565;BME280;3316;44.118;27.258;2022-11-18T00:41:36;100074.44;;;8.57;100.00
6565;BME280;3316;44.118;27.258;2022-11-18T00:44:20;100081.47;;;8.54;100.00
6565;BME280;3316;44.118;27.258;2022-11-18T00:46:45;100081.63;;;8.37;100.00
6565;BME280;3316;44.118;27.258;2022-11-18T00:49:10;100074.78;;;8.23;100.00
6565;BME280;3316;44.118;27.258;2022-11-18T00:51:36;100091.38;;;8.25;100.00
6565;BME280;3316;44.118;27.258;2022-11-18T00:54:02;100082.63;;;8.29;100.00
6565;BME280;3316;44.118;27.258;2022-11-18T00:56:27;100084.34;;;8.28;100.00
6565;BME280;3316;44.118;27.258;2022-11-18T00:58:53;100081.66;;;8.36;100.00
6565;BME280;3316;44.118;27.258;2022-11-18T01:01:18;100081.78;;;8.21;100.00
6565;BME280;3316;44.118;27.258;2022-11-18T01:03:43;100075.66;;;8.20;100.00
6565;BME280;3316;44.118;27.258;2022-11-18T01:06:09;100074.91;;;8.07;100.00
6565;BME280;3316;44.118;27.258;2022-11-18T01:08:34;100072.25;;;8.12;100.00
6565;BME280;3316;44.118;27.258;2022-11-18T01:11:00;100081.88;;;8.08;100.00
6565;BME280;3316;44.118;27.258;2022-11-18T01:13:49;100086.34;;;7.99;100.00
6565;BME280;3316;44.118;27.258;2022-11-18T01:16:20;100077.72;;;7.86;100.00
6565;BME280;3316;44.118;27.258;2022-11-18T01:18:45;100076.06;;;7.73;100.00
6565;BME280;3316;44.118;27.258;2022-11-18T01:21:11;100070.88;;;7.69;100.00
6565;BME280;3316;44.118;27.258;2022-11-18T01:23:37;100073.53;;;7.64;100.00
6565;BME280;3316;44.118;27.258;2022-11-18T01:26:07;100059.59;;;7.62;100.00
6565;BME280;3316;44.118;27.258;2022-11-18T01:28:34;100054.38;;;7.59;100.00
6565;BME280;3316;44.118;27.258;2022-11-18T01:31:11;100071.75;;;7.72;100.00
6565;BME280;3316;44.118;27.258;2022-11-18T01:33:37;100066.41;;;7.78;100.00
6565;BME280;3316;44.118;27.258;2022-11-18T01:36:03;100054.28;;;7.71;100.00
6565;BME280;3316;44.118;27.258;2022-11-18T01:38:29;100069.06;;;7.80;100.00
6565;BME280;3316;44.118;27.258;2022-11-18T01:40:55;100056.06;;;7.63;100.00
6565;BME280;3316;44.118;27.258;2022-11-18T01:43:22;100032.66;;;7.47;100.00
6565;BME280;3316;44.118;27.258;2022-11-18T01:45:51;100090.84;;;7.83;100.00
6565;BME280;3316;44.118;27.258;2022-11-18T01:48:30;100070.78;;;7.84;100.00
6565;BME280;3316;44.118;27.258;2022-11-18T01:51:04;100067.34;;;7.76;100.00
6565;BME280;3316;44.118;27.258;2022-11-18T01:53:34;100048.22;;;7.66;100.00
6565;BME280;3316;44.118;27.258;2022-11-18T01:56:03;100017.81;;;7.47;100.00
6565;BME280;3316;44.118;27.258;2022-11-18T02:01:02;100056.78;;;7.83;100.00
6565;BME280;3316;44.118;27.258;2022-11-18T02:03:28;100056.84;;;7.74;100.00
6565;BME280;3316;44.118;27.258;2022-11-18T02:05:54;100063.94;;;7.62;100.00
6565;BME280;3316;44.118;27.258;2022-11-18T02:08:21;100074.38;;;7.68;100.00
6565;BME280;3316;44.118;27.258;2022-11-18T02:10:47;100073.53;;;7.61;100.00
6565;BME280;3316;44.118;27.258;2022-11-18T02:13:13;100085.66;;;7.77;100.00
6565;BME280;3316;44.118;27.258;2022-11-18T02:16:12;100079.56;;;7.71;100.00
6565;BME280;3316;44.118;27.258;2022-11-18T02:18:58;100063.13;;;7.55;100.00
6565;BME280;3316;44.118;27.258;2022-11-18T02:24:27;100024.03;;;7.33;100.00
6565;BME280;3316;44.118;27.258;2022-11-18T02:32:35;100063.91;;;7.68;100.00
6565;BME280;3316;44.118;27.258;2022-11-18T02:35:14;100056.97;;;7.59;100.00
6565;BME280;3316;44.118;27.258;2022-11-18T02:40:20;100057.88;;;7.55;100.00
6565;BME280;3316;44.118;27.258;2022-11-18T02:42:53;100070.16;;;7.49;100.00
6565;BME280;3316;44.118;27.258;2022-11-18T02:45:21;100089.38;;;7.42;100.00
6565;BME280;3316;44.118;27.258;2022-11-18T02:47:48;100089.44;;;7.37;100.00
6565;BME280;3316;44.118;27.258;2022-11-18T02:50:18;100080.63;;;7.47;100.00
6565;BME280;3316;44.118;27.258;2022-11-18T02:52:45;100057.16;;;7.32;100.00
6565;BME280;3316;44.118;27.258;2022-11-18T02:55:13;100078.03;;;7.41;100.00
6565;BME280;3316;44.118;27.258;2022-11-18T02:57:39;100058.91;;;7.32;100.00
6565;BME280;3316;44.118;27.258;2022-11-18T03:00:06;100069.31;;;7.44;100.00
6565;BME280;3316;44.118;27.258;2022-11-18T03:02:44;100088.34;;;7.68;100.00
6565;BME280;3316;44.118;27.258;2022-11-18T03:05:17;100074.34;;;7.74;100.00
6565;BME280;3316;44.118;27.258;2022-11-18T03:07:49;100071.78;;;7.66;100.00
6565;BME280;3316;44.118;27.258;2022-11-18T03:10:18;100059.66;;;7.52;100.00
6565;BME280;3316;44.118;27.258;2022-11-18T03:13:04;100060.50;;;7.58;100.00
6565;BME280;3316;44.118;27.258;2022-11-18T03:15:42;100030.06;;;7.42;100.00
6565;BME280;3316;44.118;27.258;2022-11-18T03:21:07;100064.09;;;7.42;100.00
6565;BME280;3316;44.118;27.258;2022-11-18T03:26:18;100048.53;;;7.19;100.00
6565;BME280;3316;44.118;27.258;2022-11-18T03:28:59;100056.47;;;7.06;100.00
6565;BME280;3316;44.118;27.258;2022-11-18T03:31:39;100065.19;;;7.08;100.00
6565;BME280;3316;44.118;27.258;2022-11-18T03:34:19;100075.56;;;7.23;100.00
6565;BME280;3316;44.118;27.258;2022-11-18T03:36:49;100077.25;;;7.30;100.00
6565;BME280;3316;44.118;27.258;2022-11-18T03:39:16;100066.88;;;7.15;100.00
6565;BME280;3316;44.118;27.258;2022-11-18T03:41:47;100077.34;;;7.12;100.00
6565;BME280;3316;44.118;27.258;2022-11-18T03:44:31;100083.44;;;7.12;100.00
6565;BME280;3316;44.118;27.258;2022-11-18T03:47:02;100082.63;;;7.04;100.00
6565;BME280;3316;44.118;27.258;2022-11-18T03:49:42;100094.84;;;7.04;100.00
6565;BME280;3316;44.118;27.258;2022-11-18T03:52:14;100094.03;;;6.91;100.00
6565;BME280;3316;44.118;27.258;2022-11-18T03:54:42;100079.22;;;6.83;100.00
6565;BME280;3316;44.118;27.258;2022-11-18T03:57:15;100080.09;;;6.85;100.00
6565;BME280;3316;44.118;27.258;2022-11-18T03:59:48;100079.25;;;6.84;100.00
6565;BME280;3316;44.118;27.258;2022-11-18T04:02:18;100092.28;;;6.83;100.00
6565;BME280;3316;44.118;27.258;2022-11-18T04:04:47;100085.28;;;6.91;100.00
6565;BME280;3316;44.118;27.258;2022-11-18T04:10:13;100101.06;;;6.73;100.00
6565;BME280;3316;44.118;27.258;2022-11-18T04:15:26;100075.00;;;6.55;100.00
6565;BME280;3316;44.118;27.258;2022-11-18T04:17:52;100068.88;;;6.50;100.00
6565;BME280;3316;44.118;27.258;2022-11-18T04:20:20;100093.28;;;6.55;100.00
6565;BME280;3316;44.118;27.258;2022-11-18T04:22:46;100094.13;;;6.60;100.00
6565;BME280;3316;44.118;27.258;2022-11-18T04:25:11;100083.66;;;6.70;100.00
6565;BME280;3316;44.118;27.258;2022-11-18T04:27:37;100097.59;;;6.66;100.00
6565;BME280;3316;44.118;27.258;2022-11-18T04:30:04;100090.63;;;6.67;100.00
6565;BME280;3316;44.118;27.258;2022-11-18T04:32:30;100086.31;;;6.58;100.00
6565;BME280;3316;44.118;27.258;2022-11-18T04:34:55;100090.66;;;6.58;100.00
6565;BME280;3316;44.118;27.258;2022-11-18T04:37:20;100081.06;;;6.60;100.00
6565;BME280;3316;44.118;27.258;2022-11-18T04:39:46;100089.72;;;6.75;100.00
6565;BME280;3316;44.118;27.258;2022-11-18T04:42:11;100074.09;;;6.59;100.00
6565;BME280;3316;44.118;27.258;2022-11-18T04:44:37;100061.88;;;6.62;100.00
6565;BME280;3316;44.118;27.258;2022-11-18T04:47:04;100087.09;;;6.75;100.00
6565;BME280;3316;44.118;27.258;2022-11-18T04:49:31;100073.16;;;6.73;100.00
6565;BME280;3316;44.118;27.258;2022-11-18T04:51:57;100071.44;;;6.74;100.00
6565;BME280;3316;44.118;27.258;2022-11-18T04:54:23;100077.53;;;6.71;100.00
6565;BME280;3316;44.118;27.258;2022-11-18T04:56:49;100065.34;;;6.70;100.00
6565;BME280;3316;44.118;27.258;2022-11-18T04:59:19;100079.28;;;6.74;100.00
6565;BME280;3316;44.118;27.258;2022-11-18T05:01:45;100081.00;;;6.78;100.00
6565;BME280;3316;44.118;27.258;2022-11-18T05:04:13;100087.03;;;6.95;100.00
6565;BME280;3316;44.118;27.258;2022-11-18T05:06:39;100080.91;;;6.97;100.00
6565;BME280;3316;44.118;27.258;2022-11-18T05:09:05;100104.38;;;7.11;100.00
6565;BME280;3316;44.118;27.258;2022-11-18T05:11:31;100102.63;;;7.14;100.00
6565;BME280;3316;44.118;27.258;2022-11-18T05:14:15;100103.50;;;7.12;100.00
6565;BME280;3316;44.118;27.258;2022-11-18T05:16:40;100089.59;;;7.07;100.00
6565;BME280;3316;44.118;27.258;2022-11-18T05:19:06;100106.06;;;7.24;100.00
6565;BME280;3316;44.118;27.258;2022-11-18T05:21:32;100108.63;;;7.32;100.00
6565;BME280;3316;44.118;27.258;2022-11-18T05:23:58;100095.50;;;7.42;100.00
6565;BME280;3316;44.118;27.258;2022-11-18T05:26:24;100052.91;;;7.16;100.00
6565;BME280;3316;44.118;27.258;2022-11-18T05:28:50;100095.44;;;7.53;100.00
6565;BME280;3316;44.118;27.258;2022-11-18T05:31:16;100111.78;;;7.80;100.00
6565;BME280;3316;44.118;27.258;2022-11-18T05:33:42;100107.25;;;8.05;100.00
6565;BME280;3316;44.118;27.258;2022-11-18T05:36:16;100108.53;;;8.54;100.00
6565;BME280;3316;44.118;27.258;2022-11-18T05:38:42;100069.94;;;9.35;100.00
6565;BME280;3316;44.118;27.258;2022-11-18T05:41:08;100111.22;;;10.83;100.00
6565;BME280;3316;44.118;27.258;2022-11-18T05:43:35;100111.03;;;11.34;100.00
6565;BME280;3316;44.118;27.258;2022-11-18T05:46:02;100114.31;;;12.54;100.00
6565;BME280;3316;44.118;27.258;2022-11-18T05:48:27;100118.94;;;13.39;100.00
6565;BME280;3316;44.118;27.258;2022-11-18T05:50:54;100106.97;;;13.26;100.00
6565;BME280;3316;44.118;27.258;2022-11-18T05:53:22;100118.53;;;12.92;100.00
6565;BME280;3316;44.118;27.258;2022-11-18T05:58:48;100124.50;;;11.99;100.00
6565;BME280;3316;44.118;27.258;2022-11-18T06:01:21;100138.25;;;11.35;100.00
6565;BME280;3316;44.118;27.258;2022-11-18T06:03:48;100112.16;;;10.80;100.00
6565;BME280;3316;44.118;27.258;2022-11-18T06:06:16;100132.91;;;10.49;100.00
6565;BME280;3316;44.118;27.258;2022-11-18T06:09:04;100121.06;;;10.26;100.00
6565;BME280;3316;44.118;27.258;2022-11-18T06:11:40;100140.28;;;10.29;100.00
6565;BME280;3316;44.118;27.258;2022-11-18T06:14:18;100126.50;;;11.08;100.00
6565;BME280;3316;44.118;27.258;2022-11-18T06:16:48;100131.00;;;12.19;100.00
6565;BME280;3316;44.118;27.258;2022-11-18T06:19:15;100138.44;;;13.91;100.00
6565;BME280;3316;44.118;27.258;2022-11-18T06:21:41;100123.50;;;13.33;100.00
6565;BME280;3316;44.118;27.258;2022-11-18T06:24:07;100120.66;;;13.40;100.00
6565;BME280;3316;44.118;27.258;2022-11-18T06:26:35;100115.47;;;14.71;100.00
6565;BME280;3316;44.118;27.258;2022-11-18T06:29:01;100127.84;;;16.31;96.08
6565;BME280;3316;44.118;27.258;2022-11-18T06:31:26;100118.47;;;17.62;81.34
6565;BME280;3316;44.118;27.258;2022-11-18T06:33:52;100141.81;;;18.47;73.25
6565;BME280;3316;44.118;27.258;2022-11-18T06:36:17;100139.78;;;19.03;63.45
6565;BME280;3316;44.118;27.258;2022-11-18T06:38:53;100146.50;;;19.76;59.79
6565;BME280;3316;44.118;27.258;2022-11-18T06:41:18;100153.78;;;20.80;54.51
6565;BME280;3316;44.118;27.258;2022-11-18T06:43:44;100154.69;;;21.52;51.71
6565;BME280;3316;44.118;27.258;2022-11-18T06:46:12;100142.59;;;23.19;46.70
6565;BME280;3316;44.118;27.258;2022-11-18T06:48:56;100141.81;;;24.76;41.45
6565;BME280;3316;44.118;27.258;2022-11-18T06:51:22;100159.94;;;24.85;40.64
6565;BME280;3316;44.118;27.258;2022-11-18T06:53:48;100128.06;;;25.03;39.81
6565;BME280;3316;44.118;27.258;2022-11-18T06:56:15;100130.13;;;24.99;38.50
6565;BME280;3316;44.118;27.258;2022-11-18T06:58:41;100132.66;;;24.31;40.68
6565;BME280;3316;44.118;27.258;2022-11-18T07:01:18;100132.88;;;23.43;42.23
6565;BME280;3316;44.118;27.258;2022-11-18T07:03:45;100133.09;;;23.15;43.71
6565;BME280;3316;44.118;27.258;2022-11-18T07:06:14;100120.63;;;24.48;41.04
6565;BME280;3316;44.118;27.258;2022-11-18T07:08:40;100134.50;;;25.35;39.40
6565;BME280;3316;44.118;27.258;2022-11-18T07:11:09;100138.22;;;24.99;39.16
6565;BME280;3316;44.118;27.258;2022-11-18T07:13:35;100118.66;;;23.03;42.95
6565;BME280;3316;44.118;27.258;2022-11-18T07:16:03;100120.56;;;21.13;48.83
6565;BME280;3316;44.118;27.258;2022-11-18T07:18:31;100115.63;;;20.32;52.31
6565;BME280;3316;44.118;27.258;2022-11-18T07:20:56;100114.47;;;19.60;57.86
6565;BME280;3316;44.118;27.258;2022-11-18T07:23:24;100124.00;;;19.31;62.18
6565;BME280;3316;44.118;27.258;2022-11-18T07:25:53;100133.34;;;19.07;62.19
6565;BME280;3316;44.118;27.258;2022-11-18T07:28:19;100133.38;;;19.56;63.12
6565;BME280;3316;44.118;27.258;2022-11-18T07:30:44;100136.34;;;22.15;51.50
6565;BME280;3316;44.118;27.258;2022-11-18T07:33:10;100138.31;;;23.54;45.56
6565;BME280;3316;44.118;27.258;2022-11-18T07:35:35;100137.94;;;24.67;43.06
6565;BME280;3316;44.118;27.258;2022-11-18T07:38:00;100140.69;;;24.44;41.99
6565;BME280;3316;44.118;27.258;2022-11-18T07:40:26;100136.50;;;24.98;41.06
6565;BME280;3316;44.118;27.258;2022-11-18T07:42:52;100128.22;;;25.23;40.22
6565;BME280;3316;44.118;27.258;2022-11-18T07:45:18;100134.50;;;26.01;39.13
6565;BME280;3316;44.118;27.258;2022-11-18T07:47:43;100138.22;;;27.37;36.87
6565;BME280;3316;44.118;27.258;2022-11-18T07:50:09;100131.66;;;26.88;37.21
6565;BME280;3316;44.118;27.258;2022-11-18T07:52:34;100115.25;;;27.01;37.30
6565;BME280;3316;44.118;27.258;2022-11-18T07:54:59;100130.78;;;26.88;37.64
6565;BME280;3316;44.118;27.258;2022-11-18T07:57:25;100122.53;;;26.37;38.05
6565;BME280;3316;44.118;27.258;2022-11-18T07:59:50;100140.50;;;25.49;39.82
6565;BME280;3316;44.118;27.258;2022-11-18T08:02:15;100132.69;;;24.66;41.43
6565;BME280;3316;44.118;27.258;2022-11-18T08:04:41;100122.03;;;24.30;42.45
6565;BME280;3316;44.118;27.258;2022-11-18T08:07:09;100116.66;;;24.77;41.52
6565;BME280;3316;44.118;27.258;2022-11-18T08:09:35;100108.16;;;25.27;40.02
6565;BME280;3316;44.118;27.258;2022-11-18T08:12:00;100113.41;;;26.17;39.80
6565;BME280;3316;44.118;27.258;2022-11-18T08:14:26;100100.97;;;26.89;38.57
6565;BME280;3316;44.118;27.258;2022-11-18T08:16:54;100110.38;;;28.15;36.21
6565;BME280;3316;44.118;27.258;2022-11-18T08:19:19;100118.81;;;28.41;35.86
6565;BME280;3316;44.118;27.258;2022-11-18T08:21:45;100122.44;;;28.70;35.36
6565;BME280;3316;44.118;27.258;2022-11-18T08:24:10;100114.00;;;28.92;34.48
6565;BME280;3316;44.118;27.258;2022-11-18T08:26:36;100124.13;;;29.56;33.91
6565;BME280;3316;44.118;27.258;2022-11-18T08:29:02;100135.53;;;29.59;33.49
6565;BME280;3316;44.118;27.258;2022-11-18T08:31:29;100137.47;;;29.30;33.49
6565;BME280;3316;44.118;27.258;2022-11-18T08:34:13;100130.66;;;28.97;33.96
6565;BME280;3316;44.118;27.258;2022-11-18T08:36:39;100135.41;;;28.76;34.21
6565;BME280;3316;44.118;27.258;2022-11-18T08:39:07;100136.81;;;28.71;34.61
6565;BME280;3316;44.118;27.258;2022-11-18T08:41:41;100133.69;;;29.14;33.63
6565;BME280;3316;44.118;27.258;2022-11-18T08:44:10;100124.56;;;28.67;34.20
6565;BME280;3316;44.118;27.258;2022-11-18T08:46:36;100117.25;;;28.29;34.41
6565;BME280;3316;44.118;27.258;2022-11-18T08:49:02;100101.56;;;28.33;34.58
6565;BME280;3316;44.118;27.258;2022-11-18T08:51:28;100125.53;;;29.14;33.48
6565;BME280;3316;44.118;27.258;2022-11-18T08:53:53;100122.66;;;29.98;32.15
6565;BME280;3316;44.118;27.258;2022-11-18T08:56:20;100121.78;;;30.87;30.74
6565;BME280;3316;44.118;27.258;2022-11-18T08:58:46;100110.66;;;30.63;31.48
6565;BME280;3316;44.118;27.258;2022-11-18T09:01:12;100093.34;;;30.82;30.71
6565;BME280;3316;44.118;27.258;2022-11-18T09:03:38;100078.03;;;30.81;31.36
6565;BME280;3316;44.118;27.258;2022-11-18T09:06:18;100097.72;;;31.77;29.58
6565;BME280;3316;44.118;27.258;2022-11-18T09:08:45;100098.13;;;31.90;29.60
6565;BME280;3316;44.118;27.258;2022-11-18T09:11:24;100091.75;;;31.66;29.91
6565;BME280;3316;44.118;27.258;2022-11-18T09:13:53;100102.59;;;32.89;28.29
6565;BME280;3316;44.118;27.258;2022-11-18T09:16:19;100104.94;;;33.41;28.28
6565;BME280;3316;44.118;27.258;2022-11-18T09:18:44;100101.00;;;33.51;27.96
6565;BME280;3316;44.118;27.258;2022-11-18T09:21:10;100051.34;;;32.77;28.44
6565;BME280;3316;44.118;27.258;2022-11-18T09:23:36;100080.47;;;32.76;28.17
6565;BME280;3316;44.118;27.258;2022-11-18T09:26:05;100075.47;;;31.40;29.59
6565;BME280;3316;44.118;27.258;2022-11-18T09:28:31;100073.25;;;29.77;32.06
6565;BME280;3316;44.118;27.258;2022-11-18T09:31:03;100067.88;;;30.83;30.72
6565;BME280;3316;44.118;27.258;2022-11-18T09:33:29;100077.09;;;30.46;31.38
6565;BME280;3316;44.118;27.258;2022-11-18T09:35:54;100060.63;;;30.83;31.15
6565;BME280;3316;44.118;27.258;2022-11-18T09:38:20;100053.75;;;31.48;29.27
6565;BME280;3316;44.118;27.258;2022-11-18T09:47:28;100050.75;;;29.30;32.64
6565;BME280;3316;44.118;27.258;2022-11-18T09:49:59;100042.53;;;27.79;34.88
6565;BME280;3316;44.118;27.258;2022-11-18T09:52:29;100038.34;;;28.43;34.14
6565;BME280;3316;44.118;27.258;2022-11-18T09:54:57;100039.41;;;29.17;33.35
6565;BME280;3316;44.118;27.258;2022-11-18T09:57:35;100026.81;;;29.26;33.11
6565;BME280;3316;44.118;27.258;2022-11-18T10:00:09;100026.88;;;29.98;32.42
6565;BME280;3316;44.118;27.258;2022-11-18T10:02:57;100007.91;;;30.33;31.22
6565;BME280;3316;44.118;27.258;2022-11-18T10:05:26;100015.25;;;30.05;31.80
6565;BME280;3316;44.118;27.258;2022-11-18T10:10:44;100008.84;;;28.50;33.62
6565;BME280;3316;44.118;27.258;2022-11-18T10:24:52;99978.34;;;29.23;32.39
6565;BME280;3316;44.118;27.258;2022-11-18T10:27:18;99969.06;;;29.70;31.54
6565;BME280;3316;44.118;27.258;2022-11-18T10:29:45;99968.78;;;30.08;31.10
6565;BME280;3316;44.118;27.258;2022-11-18T10:32:16;99963.78;;;30.31;30.96
6565;BME280;3316;44.118;27.258;2022-11-18T10:34:51;99949.25;;;30.40;30.61
6565;BME280;3316;44.118;27.258;2022-11-18T10:37:26;99948.13;;;30.76;30.46
6565;BME280;3316;44.118;27.258;2022-11-18T10:39:56;99943.22;;;29.75;31.39
6565;BME280;3316;44.118;27.258;2022-11-18T10:42:48;99947.66;;;29.49;32.24
6565;BME280;3316;44.118;27.258;2022-11-18T10:48:02;99933.66;;;24.88;38.64
6565;BME280;3316;44.118;27.258;2022-11-18T10:52:58;99918.63;;;24.07;42.13
6565;BME280;3316;44.118;27.258;2022-11-18T10:55:25;99916.69;;;24.09;42.08
6565;BME280;3316;44.118;27.258;2022-11-18T10:58:12;99915.00;;;24.52;41.85
6565;BME280;3316;44.118;27.258;2022-11-18T11:00:42;99907.84;;;24.75;41.59
6565;BME280;3316;44.118;27.258;2022-11-18T11:06:55;99898.78;;;24.98;40.84
6565;BME280;3316;44.118;27.258;2022-11-18T11:11:42;99876.38;;;24.20;42.37
6565;BME280;3316;44.118;27.258;2022-11-18T11:17:05;99882.47;;;24.11;42.92
6565;BME280;3316;44.118;27.258;2022-11-18T11:19:35;99870.72;;;24.12;43.55
6565;BME280;3316;44.118;27.258;2022-11-18T11:22:12;99867.47;;;23.96;43.43
6565;BME280;3316;44.118;27.258;2022-11-18T11:24:38;99884.75;;;23.69;44.22
6565;BME280;3316;44.118;27.258;2022-11-18T11:30:09;99862.44;;;23.45;45.55
6565;BME280;3316;44.118;27.258;2022-11-18T11:35:34;99853.97;;;22.79;46.98
6565;BME280;3316;44.118;27.258;2022-11-18T11:38:25;99835.97;;;22.68;47.72
6565;BME280;3316;44.118;27.258;2022-11-18T11:50:07;99822.59;;;22.18;50.94
6565;BME280;3316;44.118;27.258;2022-11-18T11:53:03;99838.25;;;21.99;53.04
6565;BME280;3316;44.118;27.258;2022-11-18T11:55:42;99817.28;;;22.05;52.96
6565;BME280;3316;44.118;27.258;2022-11-18T11:58:51;99824.31;;;22.06;54.09
6565;BME280;3316;44.118;27.258;2022-11-18T12:01:15;99811.50;;;21.86;55.61
6565;BME280;3316;44.118;27.258;2022-11-18T12:03:49;99821.44;;;22.09;55.17
6565;BME280;3316;44.118;27.258;2022-11-18T12:06:17;99810.81;;;22.21;54.30
6565;BME280;3316;44.118;27.258;2022-11-18T12:08:53;99813.06;;;21.89;56.27
6565;BME280;3316;44.118;27.258;2022-11-18T12:11:36;99798.56;;;21.66;58.00
6565;BME280;3316;44.118;27.258;2022-11-18T12:14:09;99794.81;;;21.56;58.40
6565;BME280;3316;44.118;27.258;2022-11-18T12:19:28;99800.81;;;21.08;63.40
6565;BME280;3316;44.118;27.258;2022-11-18T12:21:55;99798.41;;;21.03;64.38
6565;BME280;3316;44.118;27.258;2022-11-18T12:27:03;99808.00;;;21.20;65.32
6565;BME280;3316;44.118;27.258;2022-11-18T12:29:41;99803.00;;;21.01;66.11
6565;BME280;3316;44.118;27.258;2022-11-18T12:40:38;99795.31;;;20.42;75.99
6565;BME280;3316;44.118;27.258;2022-11-18T12:46:07;99764.13;;;20.00;78.33
6565;BME280;3316;44.118;27.258;2022-11-18T12:48:38;99799.00;;;20.11;79.18
6565;BME280;3316;44.118;27.258;2022-11-18T12:53:41;99785.03;;;20.36;77.79
6565;BME280;3316;44.118;27.258;2022-11-18T12:59:01;99776.31;;;20.47;77.59
6565;BME280;3316;44.118;27.258;2022-11-18T13:01:31;99783.78;;;20.68;75.83
6565;BME280;3316;44.118;27.258;2022-11-18T13:04:17;99784.66;;;20.69;75.61
6565;BME280;3316;44.118;27.258;2022-11-18T13:06:46;99748.63;;;20.48;76.20
6565;BME280;3316;44.118;27.258;2022-11-18T13:09:17;99765.81;;;20.58;76.73
6565;BME280;3316;44.118;27.258;2022-11-18T13:11:56;99769.81;;;20.51;76.67
6565;BME280;3316;44.118;27.258;2022-11-18T13:14:27;99759.47;;;20.32;80.08
6565;BME280;3316;44.118;27.258;2022-11-18T13:17:34;99750.00;;;20.12;82.30
6565;BME280;3316;44.118;27.258;2022-11-18T13:20:27;99744.88;;;19.95;84.59
6565;BME280;3316;44.118;27.258;2022-11-18T13:23:25;99745.13;;;19.77;86.26
6565;BME280;3316;44.118;27.258;2022-11-18T13:26:23;99711.84;;;19.40;89.10
6565;BME280;3316;44.118;27.258;2022-11-18T13:34:26;99721.28;;;19.16;93.46
6565;BME280;3316;44.118;27.258;2022-11-18T13:36:53;99722.59;;;19.09;94.50
6565;BME280;3316;44.118;27.258;2022-11-18T13:39:24;99723.13;;;19.00;95.23
6565;BME280;3316;44.118;27.258;2022-11-18T13:41:58;99723.28;;;18.83;97.57
6565;BME280;3316;44.118;27.258;2022-11-18T13:44:26;99717.00;;;18.84;97.76
6565;BME280;3316;44.118;27.258;2022-11-18T13:50:10;99685.88;;;18.54;98.12
6565;BME280;3316;44.118;27.258;2022-11-18T13:52:59;99725.28;;;18.63;100.00
6565;BME280;3316;44.118;27.258;2022-11-18T13:55:29;99714.47;;;18.51;100.00
6565;BME280;3316;44.118;27.258;2022-11-18T14:00:41;99728.81;;;18.33;100.00
6565;BME280;3316;44.118;27.258;2022-11-18T14:03:29;99711.63;;;18.23;100.00
6565;BME280;3316;44.118;27.258;2022-11-18T14:05:56;99729.91;;;18.29;100.00
6565;BME280;3316;44.118;27.258;2022-11-18T14:10:51;99714.63;;;18.17;100.00
6565;BME280;3316;44.118;27.258;2022-11-18T14:13:28;99709.31;;;18.17;100.00
6565;BME280;3316;44.118;27.258;2022-11-18T14:16:00;99730.59;;;18.17;100.00
6565;BME280;3316;44.118;27.258;2022-11-18T14:18:34;99730.34;;;18.06;100.00
6565;BME280;3316;44.118;27.258;2022-11-18T14:21:01;99711.50;;;17.93;100.00
6565;BME280;3316;44.118;27.258;2022-11-18T14:23:30;99696.91;;;17.69;100.00
6565;BME280;3316;44.118;27.258;2022-11-18T14:25:58;99737.00;;;17.82;100.00
6565;BME280;3316;44.118;27.258;2022-11-18T14:28:30;99743.00;;;17.85;100.00
6565;BME280;3316;44.118;27.258;2022-11-18T14:36:47;99723.50;;;17.69;100.00
6565;BME280;3316;44.118;27.258;2022-11-18T14:39:23;99726.50;;;17.63;100.00
6565;BME280;3316;44.118;27.258;2022-11-18T14:41:50;99722.59;;;17.36;100.00
6565;BME280;3316;44.118;27.258;2022-11-18T14:44:17;99706.03;;;17.14;100.00
6565;BME280;3316;44.118;27.258;2022-11-18T14:46:52;99682.97;;;16.97;100.00
6565;BME280;3316;44.118;27.258;2022-11-18T14:49:21;99681.88;;;17.01;100.00
6565;BME280;3316;44.118;27.258;2022-11-18T14:51:48;99680.47;;;16.94;100.00
6565;BME280;3316;44.118;27.258;2022-11-18T14:54:15;99698.03;;;16.79;100.00
6565;BME280;3316;44.118;27.258;2022-11-18T14:56:41;99684.53;;;16.67;100.00
6565;BME280;3316;44.118;27.258;2022-11-18T14:59:18;99680.31;;;16.63;100.00
6565;BME280;3316;44.118;27.258;2022-11-18T15:01:44;99679.72;;;16.56;100.00
6565;BME280;3316;44.118;27.258;2022-11-18T15:04:10;99691.13;;;16.58;100.00
6565;BME280;3316;44.118;27.258;2022-11-18T15:06:37;99692.53;;;16.48;100.00
6565;BME280;3316;44.118;27.258;2022-11-18T15:09:03;99682.25;;;16.41;100.00
6565;BME280;3316;44.118;27.258;2022-11-18T15:11:29;99681.09;;;16.46;100.00
6565;BME280;3316;44.118;27.258;2022-11-18T15:13:55;99681.47;;;16.39;100.00
6565;BME280;3316;44.118;27.258;2022-11-18T15:16:26;99676.44;;;16.33;100.00
6565;BME280;3316;44.118;27.258;2022-11-18T15:18:57;99636.41;;;16.01;100.00